sensor_id;sensor_type;location;lat;lon;timestamp;pressure;altitude;pressure_sealevel;temperature;humidity
10652;BME280;5374;42.742;23.266;2023-01-09T00:00:44;95775.47;;;1.16;84.00
10652;BME280;5374;42.742;23.266;2023-01-09T00:03:31;95783.84;;;1.26;83.97
10652;BME280;5374;42.742;23.266;2023-01-09T00:06:20;95783.56;;;1.21;84.36
10652;BME280;5374;42.742;23.266;2023-01-09T00:09:07;95781.50;;;1.16;84.31
10652;BME280;5374;42.742;23.266;2023-01-09T00:11:55;95784.88;;;1.10;85.75
10652;BME280;5374;42.742;23.266;2023-01-09T00:14:43;95778.91;;;1.01;86.32
10652;BME280;5374;42.742;23.266;2023-01-09T00:17:30;95784.41;;;1.07;85.44
10652;BME280;5374;42.742;23.266;2023-01-09T00:20:17;95775.50;;;1.01;86.04
10652;BME280;5374;42.742;23.266;2023-01-09T00:23:06;95777.56;;;1.06;86.66
10652;BME280;5374;42.742;23.266;2023-01-09T00:26:00;95779.38;;;1.05;86.71
10652;BME280;5374;42.742;23.266;2023-01-09T00:28:49;95781.81;;;1.07;85.97
10652;BME280;5374;42.742;23.266;2023-01-09T00:31:37;95782.78;;;1.06;86.47
10652;BME280;5374;42.742;23.266;2023-01-09T00:34:24;95782.97;;;1.04;84.90
10652;BME280;5374;42.742;23.266;2023-01-09T00:37:12;95780.09;;;0.99;86.93
10652;BME280;5374;42.742;23.266;2023-01-09T00:40:00;95780.34;;;1.04;87.63
10652;BME280;5374;42.742;23.266;2023-01-09T00:42:52;95780.34;;;1.04;87.11
10652;BME280;5374;42.742;23.266;2023-01-09T00:45:41;95725.84;;;0.72;86.90
10652;BME280;5374;42.742;23.266;2023-01-09T00:48:28;95771.97;;;0.94;87.19
10652;BME280;5374;42.742;23.266;2023-01-09T00:51:17;95770.44;;;0.99;87.10
10652;BME280;5374;42.742;23.266;2023-01-09T00:54:05;95770.63;;;0.98;87.36
10652;BME280;5374;42.742;23.266;2023-01-09T00:56:55;95767.38;;;0.96;87.00
10652;BME280;5374;42.742;23.266;2023-01-09T00:59:42;95778.63;;;0.96;86.17
10652;BME280;5374;42.742;23.266;2023-01-09T01:02:30;95752.25;;;0.77;86.59
10652;BME280;5374;42.742;23.266;2023-01-09T01:05:17;95757.38;;;0.85;86.64
10652;BME280;5374;42.742;23.266;2023-01-09T01:08:21;95770.72;;;0.90;86.58
10652;BME280;5374;42.742;23.266;2023-01-09T01:11:09;95776.56;;;0.92;86.44
10652;BME280;5374;42.742;23.266;2023-01-09T01:13:59;95763.72;;;0.90;86.15
10652;BME280;5374;42.742;23.266;2023-01-09T01:16:46;95766.31;;;0.90;86.03
10652;BME280;5374;42.742;23.266;2023-01-09T01:19:33;95764.88;;;0.88;87.05
10652;BME280;5374;42.742;23.266;2023-01-09T01:22:21;95753.97;;;0.84;87.11
10652;BME280;5374;42.742;23.266;2023-01-09T01:25:09;95758.38;;;0.84;87.58
10652;BME280;5374;42.742;23.266;2023-01-09T01:27:56;95752.34;;;0.83;88.02
10652;BME280;5374;42.742;23.266;2023-01-09T01:30:45;95754.25;;;0.89;87.49
10652;BME280;5374;42.742;23.266;2023-01-09T01:33:32;95748.56;;;0.86;85.91
10652;BME280;5374;42.742;23.266;2023-01-09T01:36:20;95736.56;;;0.77;86.67
10652;BME280;5374;42.742;23.266;2023-01-09T01:39:07;95723.59;;;0.68;87.11
10652;BME280;5374;42.742;23.266;2023-01-09T01:41:54;95730.53;;;0.76;86.72
10652;BME280;5374;42.742;23.266;2023-01-09T01:45:01;95737.09;;;0.72;85.83
10652;BME280;5374;42.742;23.266;2023-01-09T01:47:53;95723.59;;;0.68;86.51
10652;BME280;5374;42.742;23.266;2023-01-09T01:50:45;95716.50;;;0.62;86.92
10652;BME280;5374;42.742;23.266;2023-01-09T01:53:36;95722.97;;;0.66;86.82
10652;BME280;5374;42.742;23.266;2023-01-09T01:56:25;95722.97;;;0.66;86.70
10652;BME280;5374;42.742;23.266;2023-01-09T01:59:20;95716.50;;;0.62;86.44
10652;BME280;5374;42.742;23.266;2023-01-09T02:02:09;95695.41;;;0.49;86.24
10652;BME280;5374;42.742;23.266;2023-01-09T02:04:59;95702.63;;;0.62;86.27
10652;BME280;5374;42.742;23.266;2023-01-09T02:07:47;95696.22;;;0.64;86.34
10652;BME280;5374;42.742;23.266;2023-01-09T02:10:36;95698.03;;;0.64;86.54
10652;BME280;5374;42.742;23.266;2023-01-09T02:13:24;95704.41;;;0.61;86.46
10652;BME280;5374;42.742;23.266;2023-01-09T02:16:21;95706.03;;;0.62;86.12
10652;BME280;5374;42.742;23.266;2023-01-09T02:19:34;95707.66;;;0.63;85.72
10652;BME280;5374;42.742;23.266;2023-01-09T02:22:34;95694.97;;;0.60;85.37
10652;BME280;5374;42.742;23.266;2023-01-09T02:25:41;95703.34;;;0.56;85.88
10652;BME280;5374;42.742;23.266;2023-01-09T02:28:55;95698.91;;;0.56;85.84
10652;BME280;5374;42.742;23.266;2023-01-09T02:31:58;95691.44;;;0.53;85.78
10652;BME280;5374;42.742;23.266;2023-01-09T02:34:55;95697.47;;;0.54;86.56
10652;BME280;5374;42.742;23.266;2023-01-09T02:37:50;95695.03;;;0.52;86.81
10652;BME280;5374;42.742;23.266;2023-01-09T02:40:45;95689.47;;;0.55;86.61
10652;BME280;5374;42.742;23.266;2023-01-09T02:43:33;95683.25;;;0.56;86.87
10652;BME280;5374;42.742;23.266;2023-01-09T02:46:21;95680.00;;;0.54;86.76
10652;BME280;5374;42.742;23.266;2023-01-09T02:49:10;95674.50;;;0.49;86.31
10652;BME280;5374;42.742;23.266;2023-01-09T02:52:07;95687.84;;;0.54;86.58
10652;BME280;5374;42.742;23.266;2023-01-09T02:55:07;95682.78;;;0.53;86.63
10652;BME280;5374;42.742;23.266;2023-01-09T02:58:06;95680.91;;;0.47;86.30
10652;BME280;5374;42.742;23.266;2023-01-09T03:01:02;95684.31;;;0.47;86.58
10652;BME280;5374;42.742;23.266;2023-01-09T03:04:00;95639.31;;;0.16;85.53
10652;BME280;5374;42.742;23.266;2023-01-09T03:06:57;95664.25;;;0.33;85.57
10652;BME280;5374;42.742;23.266;2023-01-09T03:09:47;95674.69;;;0.33;85.65
10652;BME280;5374;42.742;23.266;2023-01-09T03:12:37;95672.34;;;0.38;82.96
10652;BME280;5374;42.742;23.266;2023-01-09T03:15:29;95673.44;;;0.29;83.25
10652;BME280;5374;42.742;23.266;2023-01-09T03:18:21;95684.97;;;0.20;83.83
10652;BME280;5374;42.742;23.266;2023-01-09T03:21:10;95689.38;;;0.19;84.42
10652;BME280;5374;42.742;23.266;2023-01-09T03:24:01;95701.81;;;0.17;84.89
10652;BME280;5374;42.742;23.266;2023-01-09T03:26:48;95689.91;;;0.15;84.85
10652;BME280;5374;42.742;23.266;2023-01-09T03:29:36;95684.06;;;0.13;84.71
10652;BME280;5374;42.742;23.266;2023-01-09T03:32:23;95686.03;;;0.11;84.35
10652;BME280;5374;42.742;23.266;2023-01-09T03:35:12;95690.53;;;0.17;84.08
10652;BME280;5374;42.742;23.266;2023-01-09T03:37:59;95686.03;;;0.11;84.60
10652;BME280;5374;42.742;23.266;2023-01-09T03:40:48;95685.41;;;0.09;85.15
10652;BME280;5374;42.742;23.266;2023-01-09T03:43:36;95673.22;;;0.01;85.63
10652;BME280;5374;42.742;23.266;2023-01-09T03:46:23;95680.69;;;0.04;85.58
10652;BME280;5374;42.742;23.266;2023-01-09T03:49:10;95672.63;;;-0.01;85.38
10652;BME280;5374;42.742;23.266;2023-01-09T03:51:58;95695.66;;;0.10;85.64
10652;BME280;5374;42.742;23.266;2023-01-09T03:54:45;95692.25;;;0.10;85.33
10652;BME280;5374;42.742;23.266;2023-01-09T03:57:34;95691.78;;;0.06;85.47
10652;BME280;5374;42.742;23.266;2023-01-09T04:00:21;95683.94;;;0.06;84.39
10652;BME280;5374;42.742;23.266;2023-01-09T04:03:08;95682.31;;;0.05;84.61
10652;BME280;5374;42.742;23.266;2023-01-09T04:05:56;95681.50;;;0.05;85.43
10652;BME280;5374;42.742;23.266;2023-01-09T04:08:43;95669.16;;;-0.16;85.72
10652;BME280;5374;42.742;23.266;2023-01-09T04:11:31;95681.03;;;-0.14;86.64
10652;BME280;5374;42.742;23.266;2023-01-09T04:14:20;95676.28;;;-0.10;86.39
10652;BME280;5374;42.742;23.266;2023-01-09T04:17:07;95671.47;;;-0.21;86.43
10652;BME280;5374;42.742;23.266;2023-01-09T04:19:54;95669.06;;;-0.23;86.26
10652;BME280;5374;42.742;23.266;2023-01-09T04:22:41;95635.41;;;-0.32;85.36
10652;BME280;5374;42.742;23.266;2023-01-09T04:25:29;95671.94;;;-0.18;85.16
10652;BME280;5374;42.742;23.266;2023-01-09T04:28:16;95679.06;;;-0.12;84.93
10652;BME280;5374;42.742;23.266;2023-01-09T04:31:04;95669.16;;;-0.16;84.59
10652;BME280;5374;42.742;23.266;2023-01-09T04:33:52;95675.19;;;-0.16;84.73
10652;BME280;5374;42.742;23.266;2023-01-09T04:36:39;95671.94;;;-0.18;84.54
10652;BME280;5374;42.742;23.266;2023-01-09T04:39:27;95675.81;;;-0.28;84.90
10652;BME280;5374;42.742;23.266;2023-01-09T04:42:15;95670.41;;;-0.27;84.94
10652;BME280;5374;42.742;23.266;2023-01-09T04:45:02;95674.34;;;-0.31;85.20
10652;BME280;5374;42.742;23.266;2023-01-09T04:47:51;95667.00;;;-0.27;84.44
10652;BME280;5374;42.742;23.266;2023-01-09T04:50:38;95667.81;;;-0.27;84.04
10652;BME280;5374;42.742;23.266;2023-01-09T04:53:25;95661.25;;;-0.23;83.75
10652;BME280;5374;42.742;23.266;2023-01-09T04:56:12;95644.72;;;-0.38;83.86
10652;BME280;5374;42.742;23.266;2023-01-09T04:58:59;95667.00;;;-0.27;83.87
10652;BME280;5374;42.742;23.266;2023-01-09T05:01:46;95670.66;;;-0.22;83.63
10652;BME280;5374;42.742;23.266;2023-01-09T05:04:35;95671.41;;;-0.28;83.57
10652;BME280;5374;42.742;23.266;2023-01-09T05:07:23;95640.59;;;-0.47;84.55
10652;BME280;5374;42.742;23.266;2023-01-09T05:10:10;95674.34;;;-0.31;84.43
10652;BME280;5374;42.742;23.266;2023-01-09T05:12:58;95678.59;;;-0.30;83.86
10652;BME280;5374;42.742;23.266;2023-01-09T05:15:45;95646.16;;;-0.50;84.47
10652;BME280;5374;42.742;23.266;2023-01-09T05:18:32;95686.25;;;-0.28;84.21
10652;BME280;5374;42.742;23.266;2023-01-09T05:21:21;95691.28;;;-0.27;83.10
10652;BME280;5374;42.742;23.266;2023-01-09T05:24:09;95676.50;;;-0.35;83.69
10652;BME280;5374;42.742;23.266;2023-01-09T05:26:56;95679.63;;;-0.39;83.30
10652;BME280;5374;42.742;23.266;2023-01-09T05:29:43;95672.78;;;-0.40;83.94
10652;BME280;5374;42.742;23.266;2023-01-09T05:32:31;95673.78;;;-0.41;84.11
10652;BME280;5374;42.742;23.266;2023-01-09T05:35:19;95673.13;;;-0.43;83.81
10652;BME280;5374;42.742;23.266;2023-01-09T05:38:08;95670.69;;;-0.45;83.69
10652;BME280;5374;42.742;23.266;2023-01-09T05:40:56;95661.53;;;-0.41;83.55
10652;BME280;5374;42.742;23.266;2023-01-09T05:43:43;95663.97;;;-0.39;83.08
10652;BME280;5374;42.742;23.266;2023-01-09T05:46:31;95661.47;;;-0.47;84.03
10652;BME280;5374;42.742;23.266;2023-01-09T05:49:18;95669.88;;;-0.45;84.52
10652;BME280;5374;42.742;23.266;2023-01-09T05:52:06;95605.91;;;-0.71;84.79
10652;BME280;5374;42.742;23.266;2023-01-09T05:54:55;95643.81;;;-0.45;84.52
10652;BME280;5374;42.742;23.266;2023-01-09T05:57:42;95655.06;;;-0.45;84.80
10652;BME280;5374;42.742;23.266;2023-01-09T06:00:30;95664.91;;;-0.32;84.84
10652;BME280;5374;42.742;23.266;2023-01-09T06:03:17;95657.53;;;-0.28;84.76
10652;BME280;5374;42.742;23.266;2023-01-09T06:06:05;95652.97;;;-0.26;84.68
10652;BME280;5374;42.742;23.266;2023-01-09T06:08:52;95634.06;;;-0.28;84.89
10652;BME280;5374;42.742;23.266;2023-01-09T06:11:41;95633.78;;;-0.19;85.05
10652;BME280;5374;42.742;23.266;2023-01-09T06:14:28;95628.09;;;-0.22;84.41
10652;BME280;5374;42.742;23.266;2023-01-09T06:17:16;95632.97;;;-0.19;84.31
10652;BME280;5374;42.742;23.266;2023-01-09T06:20:04;95643.63;;;-0.06;82.64
10652;BME280;5374;42.742;23.266;2023-01-09T06:22:51;95634.72;;;-0.12;83.14
10652;BME280;5374;42.742;23.266;2023-01-09T06:25:39;95640.84;;;-0.05;83.21
10652;BME280;5374;42.742;23.266;2023-01-09T06:28:27;95641.31;;;-0.01;82.56
10652;BME280;5374;42.742;23.266;2023-01-09T06:31:15;95647.13;;;0.01;83.14
10652;BME280;5374;42.742;23.266;2023-01-09T06:34:02;95637.41;;;0.10;83.38
10652;BME280;5374;42.742;23.266;2023-01-09T06:36:49;95636.97;;;0.21;83.59
10652;BME280;5374;42.742;23.266;2023-01-09T06:39:36;95638.59;;;0.37;83.61
10652;BME280;5374;42.742;23.266;2023-01-09T06:42:24;95635.88;;;0.45;83.58
10652;BME280;5374;42.742;23.266;2023-01-09T06:45:13;95649.00;;;0.66;83.06
10652;BME280;5374;42.742;23.266;2023-01-09T06:48:00;95646.91;;;0.76;83.30
10652;BME280;5374;42.742;23.266;2023-01-09T06:50:47;95641.22;;;0.87;83.13
10652;BME280;5374;42.742;23.266;2023-01-09T06:53:34;95632.88;;;0.98;83.30
10652;BME280;5374;42.742;23.266;2023-01-09T06:56:23;95629.00;;;1.16;82.78
10652;BME280;5374;42.742;23.266;2023-01-09T06:59:11;95630.53;;;1.25;82.71
10652;BME280;5374;42.742;23.266;2023-01-09T07:02:00;95636.63;;;1.53;80.57
10652;BME280;5374;42.742;23.266;2023-01-09T07:04:48;95643.13;;;1.64;81.14
10652;BME280;5374;42.742;23.266;2023-01-09T07:07:35;95637.41;;;1.75;81.10
10652;BME280;5374;42.742;23.266;2023-01-09T07:10:23;95619.53;;;1.85;80.88
10652;BME280;5374;42.742;23.266;2023-01-09T07:13:11;95621.69;;;2.03;79.86
10652;BME280;5374;42.742;23.266;2023-01-09T07:15:58;95629.50;;;2.31;79.48
10652;BME280;5374;42.742;23.266;2023-01-09T07:18:49;95636.09;;;2.61;78.75
10652;BME280;5374;42.742;23.266;2023-01-09T07:21:37;95635.81;;;2.91;78.09
10652;BME280;5374;42.742;23.266;2023-01-09T07:24:24;95613.63;;;3.00;77.48
10652;BME280;5374;42.742;23.266;2023-01-09T07:27:11;95631.06;;;3.40;76.94
10652;BME280;5374;42.742;23.266;2023-01-09T07:29:59;95632.72;;;3.68;76.09
10652;BME280;5374;42.742;23.266;2023-01-09T07:32:47;95623.41;;;3.85;75.45
10652;BME280;5374;42.742;23.266;2023-01-09T07:35:36;95629.84;;;4.22;75.10
10652;BME280;5374;42.742;23.266;2023-01-09T07:38:24;95627.19;;;4.35;74.45
10652;BME280;5374;42.742;23.266;2023-01-09T07:41:11;95605.59;;;4.27;74.01
10652;BME280;5374;42.742;23.266;2023-01-09T07:43:58;95640.19;;;4.75;73.67
10652;BME280;5374;42.742;23.266;2023-01-09T07:46:46;95643.81;;;4.80;73.46
10652;BME280;5374;42.742;23.266;2023-01-09T07:49:33;95654.34;;;4.87;73.88
10652;BME280;5374;42.742;23.266;2023-01-09T07:52:21;95654.13;;;4.89;74.47
10652;BME280;5374;42.742;23.266;2023-01-09T07:55:09;95634.81;;;5.01;74.34
10652;BME280;5374;42.742;23.266;2023-01-09T07:57:56;95628.75;;;5.01;74.74
10652;BME280;5374;42.742;23.266;2023-01-09T08:00:44;95636.34;;;5.22;75.22
10652;BME280;5374;42.742;23.266;2023-01-09T08:03:31;95656.88;;;5.45;75.04
10652;BME280;5374;42.742;23.266;2023-01-09T08:06:19;95637.38;;;5.53;75.14
10652;BME280;5374;42.742;23.266;2023-01-09T08:09:07;95660.16;;;5.65;75.06
10652;BME280;5374;42.742;23.266;2023-01-09T08:11:55;95647.78;;;5.72;75.43
10652;BME280;5374;42.742;23.266;2023-01-09T08:14:43;95649.94;;;5.82;75.24
10652;BME280;5374;42.742;23.266;2023-01-09T08:17:30;95649.34;;;5.80;75.18
10652;BME280;5374;42.742;23.266;2023-01-09T08:20:17;95657.38;;;5.92;75.65
10652;BME280;5374;42.742;23.266;2023-01-09T08:23:05;95611.56;;;5.93;75.19
10652;BME280;5374;42.742;23.266;2023-01-09T08:25:53;95645.13;;;6.04;75.21
10652;BME280;5374;42.742;23.266;2023-01-09T08:28:41;95640.88;;;6.03;75.17
10652;BME280;5374;42.742;23.266;2023-01-09T08:31:28;95642.31;;;6.24;75.61
10652;BME280;5374;42.742;23.266;2023-01-09T08:34:15;95648.13;;;6.32;74.64
10652;BME280;5374;42.742;23.266;2023-01-09T08:37:04;95649.38;;;6.30;74.77
10652;BME280;5374;42.742;23.266;2023-01-09T08:39:51;95653.31;;;6.39;75.17
10652;BME280;5374;42.742;23.266;2023-01-09T08:42:41;95643.47;;;6.53;75.52
10652;BME280;5374;42.742;23.266;2023-01-09T08:45:46;95638.03;;;6.66;74.08
10652;BME280;5374;42.742;23.266;2023-01-09T08:48:50;95625.63;;;6.48;74.39
10652;BME280;5374;42.742;23.266;2023-01-09T08:51:38;95632.78;;;6.23;76.37
10652;BME280;5374;42.742;23.266;2023-01-09T08:54:25;95613.56;;;5.97;78.20
10652;BME280;5374;42.742;23.266;2023-01-09T08:57:13;95561.69;;;5.91;77.47
10652;BME280;5374;42.742;23.266;2023-01-09T09:00:02;95605.94;;;6.50;76.60
10652;BME280;5374;42.742;23.266;2023-01-09T09:02:50;95617.19;;;6.21;77.32
10652;BME280;5374;42.742;23.266;2023-01-09T09:05:52;95578.28;;;6.16;77.27
10652;BME280;5374;42.742;23.266;2023-01-09T09:08:47;95473.16;;;5.65;77.31
10652;BME280;5374;42.742;23.266;2023-01-09T09:11:34;95577.19;;;6.42;76.95
10652;BME280;5374;42.742;23.266;2023-01-09T09:14:22;95584.59;;;6.70;76.72
10652;BME280;5374;42.742;23.266;2023-01-09T09:17:31;95557.44;;;6.81;75.23
10652;BME280;5374;42.742;23.266;2023-01-09T09:20:19;95451.31;;;6.01;76.12
10652;BME280;5374;42.742;23.266;2023-01-09T09:23:06;95560.44;;;6.85;75.54
10652;BME280;5374;42.742;23.266;2023-01-09T09:25:54;95565.69;;;7.03;75.62
10652;BME280;5374;42.742;23.266;2023-01-09T09:28:41;95561.84;;;7.17;75.85
10652;BME280;5374;42.742;23.266;2023-01-09T09:31:28;95533.69;;;7.11;75.26
10652;BME280;5374;42.742;23.266;2023-01-09T09:34:17;95561.09;;;7.40;73.79
10652;BME280;5374;42.742;23.266;2023-01-09T09:37:04;95550.78;;;7.74;73.02
10652;BME280;5374;42.742;23.266;2023-01-09T09:39:51;95487.34;;;7.50;72.24
10652;BME280;5374;42.742;23.266;2023-01-09T09:43:19;95475.63;;;7.70;71.48
10652;BME280;5374;42.742;23.266;2023-01-09T09:50:50;95499.75;;;7.97;71.08
10652;BME280;5374;42.742;23.266;2023-01-09T09:53:55;95506.88;;;8.19;69.44
10652;BME280;5374;42.742;23.266;2023-01-09T09:56:50;95457.00;;;8.00;69.60
10652;BME280;5374;42.742;23.266;2023-01-09T09:59:39;95402.59;;;7.64;69.36
10652;BME280;5374;42.742;23.266;2023-01-09T10:02:29;95462.00;;;8.24;69.82
10652;BME280;5374;42.742;23.266;2023-01-09T10:05:22;95457.88;;;8.29;69.22
10652;BME280;5374;42.742;23.266;2023-01-09T10:08:20;95435.66;;;8.30;68.63
10652;BME280;5374;42.742;23.266;2023-01-09T10:11:14;95442.19;;;8.39;69.67
10652;BME280;5374;42.742;23.266;2023-01-09T10:14:12;95436.91;;;8.39;69.70
10652;BME280;5374;42.742;23.266;2023-01-09T10:20:38;95422.09;;;8.26;70.80
10652;BME280;5374;42.742;23.266;2023-01-09T10:23:50;95402.22;;;8.23;70.75
10652;BME280;5374;42.742;23.266;2023-01-09T10:26:45;95413.31;;;8.49;70.22
10652;BME280;5374;42.742;23.266;2023-01-09T10:29:49;95407.59;;;8.29;70.71
10652;BME280;5374;42.742;23.266;2023-01-09T10:32:49;95328.78;;;7.74;71.18
10652;BME280;5374;42.742;23.266;2023-01-09T10:35:57;95316.72;;;8.06;69.83
10652;BME280;5374;42.742;23.266;2023-01-09T10:38:54;95368.66;;;8.69;68.97
10652;BME280;5374;42.742;23.266;2023-01-09T10:41:50;95396.94;;;9.14;67.92
10652;BME280;5374;42.742;23.266;2023-01-09T10:44:46;95369.47;;;9.20;66.09
10652;BME280;5374;42.742;23.266;2023-01-09T10:47:37;95325.91;;;8.77;65.86
10652;BME280;5374;42.742;23.266;2023-01-09T10:50:28;95377.41;;;9.20;66.79
10652;BME280;5374;42.742;23.266;2023-01-09T10:53:20;95346.88;;;9.34;65.54
10652;BME280;5374;42.742;23.266;2023-01-09T10:56:14;95353.19;;;9.50;65.16
10652;BME280;5374;42.742;23.266;2023-01-09T10:59:04;95344.44;;;9.49;65.16
10652;BME280;5374;42.742;23.266;2023-01-09T11:01:54;95341.03;;;9.32;65.18
10652;BME280;5374;42.742;23.266;2023-01-09T11:04:42;95323.16;;;9.22;64.82
10652;BME280;5374;42.742;23.266;2023-01-09T11:07:33;95332.75;;;9.29;65.26
10652;BME280;5374;42.742;23.266;2023-01-09T11:10:22;95276.13;;;9.13;64.79
10652;BME280;5374;42.742;23.266;2023-01-09T11:13:36;95312.25;;;9.19;64.43
10652;BME280;5374;42.742;23.266;2023-01-09T11:16:32;95284.22;;;9.23;64.33
10652;BME280;5374;42.742;23.266;2023-01-09T11:19:20;95325.59;;;9.29;63.67
10652;BME280;5374;42.742;23.266;2023-01-09T11:22:15;95317.63;;;9.24;63.72
10652;BME280;5374;42.742;23.266;2023-01-09T11:25:11;95312.81;;;9.21;64.17
10652;BME280;5374;42.742;23.266;2023-01-09T11:28:04;95296.97;;;9.26;63.56
10652;BME280;5374;42.742;23.266;2023-01-09T11:30:56;95329.47;;;9.38;63.82
10652;BME280;5374;42.742;23.266;2023-01-09T11:33:47;95320.81;;;9.26;64.19
10652;BME280;5374;42.742;23.266;2023-01-09T11:36:36;95326.31;;;9.03;64.35
10652;BME280;5374;42.742;23.266;2023-01-09T11:39:25;95315.69;;;9.19;64.03
10652;BME280;5374;42.742;23.266;2023-01-09T11:42:19;95313.75;;;9.15;64.08
10652;BME280;5374;42.742;23.266;2023-01-09T11:45:29;95307.06;;;9.29;63.48
10652;BME280;5374;42.742;23.266;2023-01-09T11:48:28;95304.41;;;9.29;63.08
10652;BME280;5374;42.742;23.266;2023-01-09T11:51:19;95276.69;;;9.15;62.85
10652;BME280;5374;42.742;23.266;2023-01-09T11:54:21;95301.03;;;9.34;63.44
10652;BME280;5374;42.742;23.266;2023-01-09T11:57:11;95281.75;;;9.38;62.98
10652;BME280;5374;42.742;23.266;2023-01-09T12:00:01;95290.28;;;9.40;63.18
10652;BME280;5374;42.742;23.266;2023-01-09T12:02:58;95267.94;;;9.36;63.17
10652;BME280;5374;42.742;23.266;2023-01-09T12:05:58;95291.75;;;9.53;63.38
10652;BME280;5374;42.742;23.266;2023-01-09T12:08:53;95261.13;;;9.40;63.30
10652;BME280;5374;42.742;23.266;2023-01-09T12:11:47;95274.97;;;9.25;64.01
10652;BME280;5374;42.742;23.266;2023-01-09T12:14:47;95232.69;;;9.14;64.07
10652;BME280;5374;42.742;23.266;2023-01-09T12:17:49;95240.75;;;9.02;64.48
10652;BME280;5374;42.742;23.266;2023-01-09T12:20:49;95242.16;;;9.10;64.24
10652;BME280;5374;42.742;23.266;2023-01-09T12:23:57;95255.06;;;9.23;63.90
10652;BME280;5374;42.742;23.266;2023-01-09T12:26:54;95254.19;;;9.17;64.39
10652;BME280;5374;42.742;23.266;2023-01-09T12:29:58;95241.56;;;9.03;64.55
10652;BME280;5374;42.742;23.266;2023-01-09T12:33:04;95244.94;;;8.81;65.05
10652;BME280;5374;42.742;23.266;2023-01-09T12:36:12;95237.63;;;8.50;65.93
10652;BME280;5374;42.742;23.266;2023-01-09T12:39:08;95233.41;;;8.20;66.90
10652;BME280;5374;42.742;23.266;2023-01-09T12:42:11;95235.47;;;8.18;67.20
10652;BME280;5374;42.742;23.266;2023-01-09T12:45:08;95215.19;;;8.36;66.60
10652;BME280;5374;42.742;23.266;2023-01-09T12:48:03;95216.22;;;8.35;66.53
10652;BME280;5374;42.742;23.266;2023-01-09T12:51:06;95218.75;;;8.46;66.79
10652;BME280;5374;42.742;23.266;2023-01-09T12:54:02;95223.44;;;7.94;68.32
10652;BME280;5374;42.742;23.266;2023-01-09T12:56:54;95208.34;;;7.78;69.17
10652;BME280;5374;42.742;23.266;2023-01-09T12:59:45;95224.69;;;7.75;69.66
10652;BME280;5374;42.742;23.266;2023-01-09T13:02:37;95214.91;;;7.75;69.52
10652;BME280;5374;42.742;23.266;2023-01-09T13:05:31;95219.69;;;7.62;70.13
10652;BME280;5374;42.742;23.266;2023-01-09T13:08:23;95223.84;;;7.86;69.22
10652;BME280;5374;42.742;23.266;2023-01-09T13:11:15;95208.31;;;8.06;68.89
10652;BME280;5374;42.742;23.266;2023-01-09T13:14:11;95199.44;;;8.12;68.04
10652;BME280;5374;42.742;23.266;2023-01-09T13:17:01;95202.09;;;8.12;68.27
10652;BME280;5374;42.742;23.266;2023-01-09T13:19:49;95200.28;;;7.84;68.84
10652;BME280;5374;42.742;23.266;2023-01-09T13:22:37;95198.91;;;7.99;68.74
10652;BME280;5374;42.742;23.266;2023-01-09T13:25:40;95191.41;;;7.91;68.72
10652;BME280;5374;42.742;23.266;2023-01-09T13:28:33;95199.81;;;7.87;68.90
10652;BME280;5374;42.742;23.266;2023-01-09T13:31:45;95197.97;;;7.88;69.18
10652;BME280;5374;42.742;23.266;2023-01-09T13:34:38;95184.75;;;7.88;69.13
10652;BME280;5374;42.742;23.266;2023-01-09T13:37:28;95203.16;;;7.83;69.66
10652;BME280;5374;42.742;23.266;2023-01-09T13:40:24;95196.16;;;7.77;69.83
10652;BME280;5374;42.742;23.266;2023-01-09T13:43:14;95193.75;;;7.75;69.86
10652;BME280;5374;42.742;23.266;2023-01-09T13:46:03;95184.00;;;7.47;70.41
10652;BME280;5374;42.742;23.266;2023-01-09T13:48:51;95156.94;;;7.40;70.55
10652;BME280;5374;42.742;23.266;2023-01-09T13:51:57;95177.88;;;7.30;71.38
10652;BME280;5374;42.742;23.266;2023-01-09T13:55:25;95191.88;;;7.31;72.57
10652;BME280;5374;42.742;23.266;2023-01-09T13:58:18;95191.66;;;7.32;71.76
10652;BME280;5374;42.742;23.266;2023-01-09T14:01:39;95192.91;;;7.30;72.37
10652;BME280;5374;42.742;23.266;2023-01-09T14:04:43;95206.81;;;7.25;72.37
10652;BME280;5374;42.742;23.266;2023-01-09T14:07:31;95187.31;;;7.26;71.89
10652;BME280;5374;42.742;23.266;2023-01-09T14:10:22;95194.56;;;7.19;72.08
10652;BME280;5374;42.742;23.266;2023-01-09T14:13:14;95183.34;;;7.12;71.99
10652;BME280;5374;42.742;23.266;2023-01-09T14:16:04;95188.22;;;6.92;73.16
10652;BME280;5374;42.742;23.266;2023-01-09T14:19:01;95172.50;;;6.85;73.49
10652;BME280;5374;42.742;23.266;2023-01-09T14:21:52;95166.53;;;6.90;73.40
10652;BME280;5374;42.742;23.266;2023-01-09T14:24:42;95161.06;;;6.68;74.47
10652;BME280;5374;42.742;23.266;2023-01-09T14:28:03;95167.38;;;6.67;74.38
10652;BME280;5374;42.742;23.266;2023-01-09T14:31:07;95165.19;;;6.64;74.26
10652;BME280;5374;42.742;23.266;2023-01-09T14:34:24;95164.72;;;6.67;74.20
10652;BME280;5374;42.742;23.266;2023-01-09T14:37:13;95162.34;;;6.42;75.03
10652;BME280;5374;42.742;23.266;2023-01-09T14:40:01;95157.19;;;6.47;75.44
10652;BME280;5374;42.742;23.266;2023-01-09T14:42:51;95154.22;;;6.32;75.86
10652;BME280;5374;42.742;23.266;2023-01-09T14:45:43;95140.09;;;6.14;76.44
10652;BME280;5374;42.742;23.266;2023-01-09T14:48:32;95158.56;;;6.14;77.19
10652;BME280;5374;42.742;23.266;2023-01-09T14:51:25;95121.88;;;5.90;77.74
10652;BME280;5374;42.742;23.266;2023-01-09T14:54:26;95145.47;;;5.96;78.47
10652;BME280;5374;42.742;23.266;2023-01-09T14:57:25;95157.94;;;5.89;79.38
10652;BME280;5374;42.742;23.266;2023-01-09T15:00:17;95141.69;;;5.92;79.57
10652;BME280;5374;42.742;23.266;2023-01-09T15:03:04;95152.69;;;5.89;80.17
10652;BME280;5374;42.742;23.266;2023-01-09T15:05:55;95151.69;;;6.02;79.74
10652;BME280;5374;42.742;23.266;2023-01-09T15:08:45;95144.56;;;5.91;81.65
10652;BME280;5374;42.742;23.266;2023-01-09T15:11:37;95147.53;;;5.94;82.22
10652;BME280;5374;42.742;23.266;2023-01-09T15:14:29;95128.13;;;5.77;83.30
10652;BME280;5374;42.742;23.266;2023-01-09T15:17:19;95114.72;;;5.78;83.24
10652;BME280;5374;42.742;23.266;2023-01-09T15:20:16;95119.28;;;5.71;84.12
10652;BME280;5374;42.742;23.266;2023-01-09T15:23:04;95139.56;;;5.71;84.96
10652;BME280;5374;42.742;23.266;2023-01-09T15:25:53;95108.19;;;5.58;85.21
10652;BME280;5374;42.742;23.266;2023-01-09T15:28:41;95116.75;;;5.53;86.17